Terminal Aerodrome Forecast
Issued by NWS

Home | Current Version | Previous Version | Text Only | Print | Product List | Glossary On
Versions: 1 2 3 4 5 6 7 8 9 10 11 12 13 14
000
FTUS46 KLOX 281725
TAFPMD
TAF
KPMD 281725Z 2818/2918 VRB03KT P6SM SCT250
     FM281900 25008KT P6SM SCT150 SCT250
     FM282200 25017G25KT P6SM SCT120 SCT200
     FM290400 23012KT P6SM SCT150
     FM290800 24007KT P6SM SCT250=

USA.gov is the U.S. government's official web portal to all federal, state and local government web resources and services.